Max Planck — ELZY8 — position and weather

sailwx.info

Track history (hours):
 
Tides and Currents Weather Stations Pressure Air Temp Water Temp Dewpoint Dewpoint Depression Visibility Wind Speed Wind Dir Waves Ship Positions

Max Planck

Last reported at 2014-Oct-29 18:28 UTC. Time now 2014-Nov-01 10:36 UTC.
Position N 31°13' E 121°48'.

Length 99.9 m; beam 16.2 m; draft 6.8 m.

Type: Ship (hazmat cat D). MMSI: 636091773.

Date/timePositionNaut miles runAvg speedWind from/ knotsBaromVisibWave heightAir tempDewpointWater temp
2014-Oct-29 18:28N 31°13' E 121°48'8 8.8
2014-Oct-29 17:31N 31°20' E 121°41'1010.6
2014-Oct-29 16:33N 31°25' E 121°31'1111.2
2014-Oct-29 15:33N 31°32' E 121°21'1313.2
2014-Oct-29 14:33N 31°41' E 121°10'1312.7
2014-Oct-29 13:33N 31°47' E 120°57'1211.8
2014-Oct-29 12:33N 31°58' E 120°51'1010.0
2014-Oct-29 11:33N 31°60' E 120°40'10 9.5
2014-Oct-29 10:33N 32°04' E 120°30'10 9.6
2014-Oct-29 09:33N 31°59' E 120°20'1010.4
2014-Oct-29 08:33N 31°56' E 120°09'2 2.3
2014-Oct-29 07:33N 31°57' E 120°06'0 0.0
2014-Oct-28 15:28N 31°57' E 120°06'0 0.0
2014-Oct-28 14:33N 31°57' E 120°06'4 4.1
2014-Oct-28 13:33N 31°56' E 120°11'9 9.2
2014-Oct-28 12:33N 31°59' E 120°21'10 9.9
2014-Oct-28 11:33N 32°04' E 120°31'1010.2
2014-Oct-28 10:33N 32°00' E 120°42'1010.1
2014-Oct-28 09:33N 31°55' E 120°53'1110.8
2014-Oct-28 08:33N 31°47' E 121°00'1312.6
2014-Oct-28 07:33N 31°40' E 121°12'1312.8
2014-Oct-28 06:32N 31°31' E 121°24'1010.4
2014-Oct-28 05:33N 31°24' E 121°33'1110.5
2014-Oct-28 04:31N 31°18' E 121°43'  
Track history (hours):
 
Tides and Currents Weather Stations Pressure Air Temp Water Temp Dewpoint Dewpoint Depression Visibility Wind Speed Wind Dir Waves Ship Positions

Max Planck

Last reported at 2014-Oct-29 18:28 UTC. Time now 2014-Nov-01 10:36 UTC.
Position N 31°13' E 121°48'.

Length 99.9 m; beam 16.2 m; draft 6.8 m.

Type: Ship (hazmat cat D). MMSI: 636091773.

Date/timePositionNaut miles runAvg speedWind from/ knotsBaromVisibWave heightAir tempDewpointWater temp
2014-Oct-29 18:28N 31°13' E 121°48'8 8.8
2014-Oct-29 17:31N 31°20' E 121°41'1010.6
2014-Oct-29 16:33N 31°25' E 121°31'1111.2
2014-Oct-29 15:33N 31°32' E 121°21'1313.2
2014-Oct-29 14:33N 31°41' E 121°10'1312.7
2014-Oct-29 13:33N 31°47' E 120°57'1211.8
2014-Oct-29 12:33N 31°58' E 120°51'1010.0
2014-Oct-29 11:33N 31°60' E 120°40'10 9.5
2014-Oct-29 10:33N 32°04' E 120°30'10 9.6
2014-Oct-29 09:33N 31°59' E 120°20'1010.4
2014-Oct-29 08:33N 31°56' E 120°09'2 2.3
2014-Oct-29 07:33N 31°57' E 120°06'0 0.0
2014-Oct-28 15:28N 31°57' E 120°06'0 0.0
2014-Oct-28 14:33N 31°57' E 120°06'4 4.1
2014-Oct-28 13:33N 31°56' E 120°11'9 9.2
2014-Oct-28 12:33N 31°59' E 120°21'10 9.9
2014-Oct-28 11:33N 32°04' E 120°31'1010.2
2014-Oct-28 10:33N 32°00' E 120°42'1010.1
2014-Oct-28 09:33N 31°55' E 120°53'1110.8
2014-Oct-28 08:33N 31°47' E 121°00'1312.6
2014-Oct-28 07:33N 31°40' E 121°12'1312.8
2014-Oct-28 06:32N 31°31' E 121°24'1010.4
2014-Oct-28 05:33N 31°24' E 121°33'1110.5
2014-Oct-28 04:31N 31°18' E 121°43'  

Dump ship's entire track history